createdAt,value
2019-03-26T00:00:29.033Z,46.98
2019-03-26T00:02:58.008Z,47.02
2019-03-26T00:05:27.297Z,46.98
2019-03-26T00:07:56.244Z,47.03
2019-03-26T00:10:25.146Z,47.08
2019-03-26T00:12:54.188Z,47.12
2019-03-26T00:15:24.195Z,47.16
2019-03-26T00:17:54.603Z,47.22
2019-03-26T00:20:24.327Z,47.25
2019-03-26T00:22:53.278Z,47.32
2019-03-26T00:25:22.160Z,47.37
2019-03-26T00:27:51.217Z,47.42
2019-03-26T00:30:21.456Z,47.47
2019-03-26T00:32:50.439Z,47.54
2019-03-26T00:35:19.738Z,47.58
2019-03-26T00:37:48.655Z,47.60
2019-03-26T00:40:17.732Z,47.61
2019-03-26T00:42:46.648Z,47.62
2019-03-26T00:45:16.728Z,47.67
2019-03-26T00:47:45.814Z,47.72
2019-03-26T00:50:14.965Z,47.75
2019-03-26T00:52:43.906Z,47.80
2019-03-26T00:55:22.573Z,47.84
2019-03-26T00:57:43.735Z,47.87
2019-03-26T01:00:13.756Z,47.89
2019-03-26T01:02:42.949Z,47.91
2019-03-26T01:05:11.958Z,47.95
2019-03-26T01:07:40.900Z,47.94
2019-03-26T01:10:22.220Z,47.98
2019-03-26T01:12:51.233Z,48.02
2019-03-26T01:15:20.133Z,48.03
2019-03-26T01:17:49.509Z,48.07
2019-03-26T01:20:18.390Z,48.15
2019-03-26T01:22:47.385Z,48.17
2019-03-26T01:25:16.531Z,48.21
2019-03-26T01:27:45.503Z,48.24
2019-03-26T01:30:14.409Z,48.25
2019-03-26T01:32:43.440Z,48.28
2019-03-26T01:35:12.471Z,48.29
2019-03-26T01:37:42.526Z,48.30
2019-03-26T01:40:11.680Z,48.33
2019-03-26T01:42:40.758Z,48.36
2019-03-26T01:45:09.643Z,48.36
2019-03-26T01:47:38.549Z,48.38
2019-03-26T01:50:07.637Z,48.41
2019-03-26T01:52:36.610Z,48.45
2019-03-26T01:55:06.896Z,48.48
2019-03-26T01:57:36.572Z,48.50
2019-03-26T02:00:06.049Z,48.51
2019-03-26T02:02:35.246Z,48.56
2019-03-26T02:05:04.347Z,48.56
2019-03-26T02:07:33.332Z,48.58
2019-03-26T02:10:02.313Z,48.62
2019-03-26T02:12:31.444Z,48.67
2019-03-26T02:15:00.400Z,48.67
2019-03-26T02:17:29.375Z,48.69
2019-03-26T02:19:58.459Z,48.72
2019-03-26T02:22:27.411Z,48.74
2019-03-26T02:24:56.550Z,48.75
2019-03-26T02:27:25.517Z,48.75
2019-03-26T02:29:54.437Z,48.76
2019-03-26T02:32:25.855Z,48.77
2019-03-26T02:34:54.779Z,48.83
2019-03-26T02:37:23.734Z,48.85
2019-03-26T02:39:52.978Z,48.89
2019-03-26T02:42:23.121Z,48.88
2019-03-26T02:44:52.022Z,48.91
2019-03-26T02:47:20.960Z,48.93
2019-03-26T02:49:49.875Z,48.95
2019-03-26T02:52:19.050Z,48.98
2019-03-26T02:54:48.060Z,49.00
2019-03-26T02:57:17.055Z,49.04
2019-03-26T02:59:45.977Z,49.06
2019-03-26T03:02:15.249Z,49.05
2019-03-26T03:04:44.202Z,49.07
2019-03-26T03:07:13.331Z,49.11
2019-03-26T03:09:42.342Z,49.16
2019-03-26T03:12:11.345Z,49.21
2019-03-26T03:14:40.245Z,49.18
2019-03-26T03:17:09.196Z,49.14
2019-03-26T03:19:38.538Z,49.17
2019-03-26T03:22:07.479Z,49.18
2019-03-26T03:24:36.408Z,49.19
2019-03-26T03:27:05.882Z,49.21
2019-03-26T03:29:34.885Z,49.25
2019-03-26T03:32:05.174Z,49.25
2019-03-26T03:34:34.047Z,49.27
2019-03-26T03:37:03.608Z,49.26
2019-03-26T03:39:32.513Z,49.25
2019-03-26T03:42:01.997Z,49.25
2019-03-26T03:44:31.298Z,49.23
2019-03-26T03:47:01.676Z,49.25
2019-03-26T03:49:31.202Z,49.27
2019-03-26T03:52:03.023Z,49.33
2019-03-26T03:54:35.245Z,49.38
2019-03-26T03:57:06.003Z,49.40
2019-03-26T03:59:35.793Z,49.41
2019-03-26T04:02:05.114Z,49.44
2019-03-26T04:04:34.580Z,49.45
2019-03-26T04:07:03.568Z,49.47
2019-03-26T04:09:32.480Z,49.52
2019-03-26T04:12:01.440Z,49.54
2019-03-26T04:14:30.320Z,49.57
2019-03-26T04:17:01.026Z,49.60
2019-03-26T04:19:29.920Z,49.60
2019-03-26T04:21:58.946Z,49.65
2019-03-26T04:24:27.843Z,49.66
2019-03-26T04:26:56.867Z,49.66
2019-03-26T04:29:25.752Z,49.68
2019-03-26T04:31:54.769Z,49.67
2019-03-26T04:34:24.389Z,49.71
2019-03-26T04:36:53.373Z,49.74
2019-03-26T04:39:22.289Z,49.80
2019-03-26T04:41:51.663Z,49.85
2019-03-26T04:44:20.919Z,49.88
2019-03-26T04:46:49.845Z,49.89
2019-03-26T04:49:19.134Z,49.88
2019-03-26T04:51:48.135Z,49.87
2019-03-26T04:54:17.785Z,49.88
2019-03-26T04:56:46.830Z,49.89
2019-03-26T04:59:15.800Z,49.90
2019-03-26T05:01:44.732Z,49.91
2019-03-26T05:04:14.083Z,49.93
2019-03-26T05:06:43.427Z,49.94
2019-03-26T05:09:12.385Z,49.96
2019-03-26T05:11:41.291Z,49.96
2019-03-26T05:14:10.672Z,49.98
2019-03-26T05:16:39.608Z,49.97
2019-03-26T05:19:08.553Z,50.00
2019-03-26T05:21:37.576Z,50.02
2019-03-26T05:24:06.756Z,50.04
2019-03-26T05:26:36.001Z,50.04
2019-03-26T05:29:04.937Z,50.05
2019-03-26T05:31:34.238Z,50.08
2019-03-26T05:34:03.517Z,50.08
2019-03-26T05:36:33.593Z,50.09
2019-03-26T05:39:04.439Z,50.12
2019-03-26T05:41:34.431Z,50.15
2019-03-26T05:44:03.319Z,50.15
2019-03-26T05:46:33.800Z,50.16
2019-03-26T05:49:04.576Z,50.17
2019-03-26T05:51:33.772Z,50.18
2019-03-26T05:54:04.397Z,50.19
2019-03-26T05:56:35.474Z,50.23
2019-03-26T05:59:04.433Z,50.24
2019-03-26T06:01:33.438Z,50.26
2019-03-26T06:04:02.760Z,50.28
2019-03-26T06:06:33.072Z,50.32
2019-03-26T06:09:02.209Z,50.33
2019-03-26T06:11:31.844Z,50.38
2019-03-26T06:14:01.306Z,50.39
2019-03-26T06:16:38.357Z,50.42
2019-03-26T06:19:01.691Z,50.43
2019-03-26T06:21:30.636Z,50.45
2019-03-26T06:23:59.609Z,50.48
2019-03-26T06:26:29.242Z,50.50
2019-03-26T06:29:01.090Z,50.53
2019-03-26T06:31:29.454Z,50.55
2019-03-26T06:33:58.326Z,50.56
2019-03-26T06:36:27.252Z,50.59
2019-03-26T06:38:57.621Z,50.61
2019-03-26T06:41:26.709Z,50.62
2019-03-26T06:43:55.698Z,50.61
2019-03-26T06:46:24.658Z,50.60
2019-03-26T06:48:53.622Z,50.62
2019-03-26T06:51:22.569Z,50.63
2019-03-26T06:53:51.451Z,50.66
2019-03-26T06:56:20.405Z,50.64
2019-03-26T06:58:49.318Z,50.66
2019-03-26T07:01:18.603Z,50.66
2019-03-26T07:03:47.480Z,50.71
2019-03-26T07:06:16.469Z,50.75
2019-03-26T07:08:45.372Z,50.79
2019-03-26T07:11:14.332Z,50.79
2019-03-26T07:13:43.520Z,50.80
2019-03-26T07:16:12.607Z,50.79
2019-03-26T07:18:41.853Z,50.76
2019-03-26T07:21:10.820Z,50.77
2019-03-26T07:23:39.720Z,50.79
2019-03-26T07:26:08.803Z,50.82
2019-03-26T07:28:39.588Z,50.82
2019-03-26T07:31:08.726Z,50.81
2019-03-26T07:33:37.623Z,50.80
2019-03-26T07:36:06.692Z,50.81
2019-03-26T07:38:36.038Z,50.80
2019-03-26T07:41:06.090Z,50.82
2019-03-26T07:43:34.969Z,50.81
2019-03-26T07:46:04.027Z,50.81
2019-03-26T07:48:33.857Z,50.79
2019-03-26T07:51:02.779Z,50.76
2019-03-26T07:53:31.695Z,50.71
2019-03-26T07:56:01.550Z,50.67
2019-03-26T07:58:33.201Z,50.59
2019-03-26T08:01:03.228Z,50.51
2019-03-26T08:03:33.479Z,50.40
2019-03-26T08:06:02.851Z,50.32
2019-03-26T08:08:32.929Z,50.20
2019-03-26T08:11:03.916Z,50.15
2019-03-26T08:13:34.112Z,50.12
2019-03-26T08:16:04.142Z,50.07
2019-03-26T08:18:34.514Z,50.10
2019-03-26T08:21:03.768Z,50.16
2019-03-26T08:23:32.835Z,50.10
2019-03-26T08:26:04.761Z,49.98
2019-03-26T08:28:35.539Z,49.80
2019-03-26T08:31:04.603Z,49.64
2019-03-26T08:33:33.584Z,49.49
2019-03-26T08:36:02.515Z,49.25
2019-03-26T08:38:33.506Z,48.96
2019-03-26T08:41:02.705Z,48.74
2019-03-26T08:43:31.637Z,48.43
2019-03-26T08:46:00.615Z,48.13
2019-03-26T08:48:30.652Z,47.84
2019-03-26T08:50:59.577Z,47.74
2019-03-26T08:53:28.502Z,47.60
2019-03-26T08:55:57.403Z,47.45
2019-03-26T08:58:26.506Z,47.31
2019-03-26T09:01:20.534Z,46.97
2019-03-26T15:53:10.832Z,35.75
2019-03-26T15:55:40.250Z,35.83
2019-03-26T15:58:09.493Z,35.93
2019-03-26T16:00:39.790Z,36.03
2019-03-26T16:03:09.249Z,36.11
2019-03-26T16:05:39.336Z,36.17
2019-03-26T16:08:08.251Z,36.22
2019-03-26T16:10:38.221Z,36.25
2019-03-26T16:13:07.376Z,36.24
2019-03-26T16:15:44.338Z,36.30
2019-03-26T16:18:07.312Z,36.35
2019-03-26T16:20:36.944Z,36.40
2019-03-26T16:23:07.016Z,36.44
2019-03-26T16:25:35.997Z,36.45
2019-03-26T16:28:04.973Z,36.52
2019-03-26T16:30:36.542Z,36.51
2019-03-26T16:33:06.779Z,36.51
2019-03-26T16:35:35.679Z,36.55
2019-03-26T16:38:04.881Z,36.62
2019-03-26T16:40:34.051Z,36.68
2019-03-26T16:43:02.915Z,36.75
2019-03-26T16:45:31.904Z,36.80
2019-03-26T16:48:02.467Z,36.86
2019-03-26T16:50:31.475Z,36.88
2019-03-26T16:53:00.396Z,36.91
2019-03-26T16:55:29.866Z,36.92
2019-03-26T16:57:58.871Z,36.94
2019-03-26T17:00:33.024Z,36.94
2019-03-26T17:03:02.337Z,36.94
2019-03-26T17:05:32.493Z,36.95
2019-03-26T17:08:01.921Z,36.99
2019-03-26T17:10:30.857Z,37.04
2019-03-26T17:13:00.144Z,37.07
2019-03-26T17:15:29.358Z,37.11
2019-03-26T17:17:58.703Z,37.11
2019-03-26T17:20:27.723Z,37.13
2019-03-26T17:22:56.876Z,37.17
2019-03-26T17:25:26.866Z,37.17
2019-03-26T17:27:55.850Z,37.23
2019-03-26T17:30:26.501Z,37.29
2019-03-26T17:32:55.867Z,37.34
2019-03-26T17:35:25.848Z,37.37
2019-03-26T17:38:00.135Z,37.43
2019-03-26T17:40:27.063Z,37.48
2019-03-26T17:42:56.443Z,37.55
2019-03-26T17:45:25.487Z,37.57
2019-03-26T17:47:54.752Z,37.61
2019-03-26T17:50:23.785Z,37.66
2019-03-26T17:52:52.881Z,37.70
2019-03-26T17:55:22.079Z,37.76
2019-03-26T17:57:51.419Z,37.81
2019-03-26T18:00:44.695Z,37.84
2019-03-26T18:03:25.611Z,37.87
2019-03-26T18:05:45.180Z,37.89
2019-03-26T18:08:15.625Z,37.94
2019-03-26T18:10:44.693Z,38.01
2019-03-26T18:13:13.767Z,38.04
2019-03-26T18:15:42.812Z,38.10
2019-03-26T18:18:12.012Z,38.13
2019-03-26T18:20:43.551Z,38.20
2019-03-26T18:23:12.594Z,38.26
2019-03-26T18:25:42.500Z,38.33
2019-03-26T18:28:11.399Z,38.41
2019-03-26T18:30:41.551Z,38.47
2019-03-26T18:33:10.655Z,38.53
2019-03-26T18:35:39.974Z,38.63
2019-03-26T18:38:09.081Z,38.70
2019-03-26T18:40:39.585Z,38.76
2019-03-26T18:43:08.885Z,38.82
2019-03-26T18:45:37.852Z,38.88
2019-03-26T18:48:06.877Z,38.94
2019-03-26T18:50:36.301Z,39.00
2019-03-26T18:53:07.163Z,39.03
2019-03-26T18:56:25.465Z,39.07
2019-03-26T18:58:55.058Z,39.10
2019-03-26T19:01:24.120Z,39.18
2019-03-26T19:03:53.249Z,39.22
2019-03-26T19:06:24.270Z,39.27
2019-03-26T19:08:53.388Z,39.29
2019-03-26T19:11:24.100Z,39.32
2019-03-26T19:13:53.195Z,39.37
2019-03-26T19:16:24.711Z,39.41
2019-03-26T19:18:54.203Z,39.51
2019-03-26T19:21:23.428Z,39.63
2019-03-26T19:24:03.348Z,39.76
2019-03-26T19:26:23.285Z,39.86
2019-03-26T19:28:52.342Z,39.95
2019-03-26T19:31:21.327Z,40.03
2019-03-26T19:33:50.360Z,40.09
2019-03-26T19:36:19.514Z,40.11
2019-03-26T19:38:48.750Z,40.18
2019-03-26T19:41:17.732Z,40.26
2019-03-26T19:43:46.853Z,40.32
2019-03-26T19:46:15.913Z,40.38
2019-03-26T19:48:45.768Z,40.40
2019-03-26T19:51:14.829Z,40.42
2019-03-26T19:53:43.966Z,40.44
2019-03-26T19:56:13.285Z,40.47
2019-03-26T19:58:42.505Z,40.48
2019-03-26T20:01:11.557Z,40.56
2019-03-26T20:03:40.451Z,40.64
2019-03-26T20:06:13.617Z,40.70
2019-03-26T20:08:42.012Z,40.77
2019-03-26T20:11:11.186Z,40.82
2019-03-26T20:13:40.316Z,40.90
2019-03-26T20:16:09.286Z,40.95
2019-03-26T20:18:39.633Z,41.02
2019-03-26T20:21:08.792Z,41.07
2019-03-26T20:23:38.137Z,41.13
2019-03-26T20:26:07.386Z,41.19
2019-03-26T20:28:36.468Z,41.26
2019-03-26T20:31:07.492Z,41.29
2019-03-26T20:33:36.679Z,41.33
2019-03-26T20:36:05.586Z,41.40
2019-03-26T20:38:34.930Z,41.46
2019-03-26T20:41:04.125Z,41.50
2019-03-26T20:43:37.596Z,41.52
2019-03-26T20:46:05.482Z,41.57
2019-03-26T20:48:34.772Z,41.66
2019-03-26T20:51:03.693Z,41.71
2019-03-26T20:53:32.791Z,41.76
2019-03-26T20:56:02.370Z,41.81
2019-03-26T20:58:32.283Z,41.84
2019-03-26T21:01:01.374Z,41.86
2019-03-26T21:03:32.232Z,41.88
2019-03-26T21:06:02.142Z,41.91
2019-03-26T21:08:31.556Z,41.96
2019-03-26T21:11:00.665Z,42.02
2019-03-26T21:13:29.853Z,42.06
2019-03-26T21:15:59.024Z,42.12
2019-03-26T21:18:28.266Z,42.15
2019-03-26T21:20:57.636Z,42.18
2019-03-26T21:23:27.363Z,42.20
2019-03-26T21:25:56.588Z,42.27
2019-03-26T21:28:26.124Z,42.31
2019-03-26T21:30:55.103Z,42.31
2019-03-26T21:33:24.159Z,42.35
2019-03-26T21:35:53.451Z,42.37
2019-03-26T21:38:28.516Z,42.37
2019-03-26T21:40:57.630Z,42.38
2019-03-26T21:43:26.672Z,42.39
2019-03-26T21:45:56.097Z,42.45
2019-03-26T21:48:25.246Z,42.50
2019-03-26T21:50:54.597Z,42.54
2019-03-26T21:53:23.567Z,42.56
2019-03-26T21:56:05.699Z,42.61
2019-03-26T21:58:24.031Z,42.64
2019-03-26T22:00:53.136Z,42.71
2019-03-26T22:03:22.585Z,42.80
2019-03-26T22:05:51.628Z,42.87
2019-03-26T22:08:20.903Z,42.88
2019-03-26T22:10:50.189Z,42.94
2019-03-26T22:13:19.301Z,42.99
2019-03-26T22:15:48.364Z,43.03
2019-03-26T22:18:17.369Z,43.07
2019-03-26T22:20:46.444Z,43.10
2019-03-26T22:23:16.511Z,43.15
2019-03-26T22:25:45.711Z,43.16
2019-03-26T22:28:15.500Z,43.20
2019-03-26T22:30:46.458Z,43.22
2019-03-26T22:33:16.236Z,43.26
2019-03-26T22:35:45.258Z,43.29
2019-03-26T22:38:14.345Z,43.28
2019-03-26T22:40:44.325Z,43.31
2019-03-26T22:43:13.485Z,43.35
2019-03-26T22:45:42.794Z,43.37
2019-03-26T22:48:11.863Z,43.41
2019-03-26T22:50:42.266Z,43.49
2019-03-26T22:53:11.621Z,43.51
2019-03-26T22:55:40.911Z,43.54
2019-03-26T22:58:13.086Z,43.56
2019-03-26T23:00:43.433Z,43.59
2019-03-26T23:03:14.443Z,43.61
2019-03-26T23:05:43.448Z,43.63
2019-03-26T23:08:12.721Z,43.65
2019-03-26T23:10:43.103Z,43.74
2019-03-26T23:13:12.312Z,43.80
2019-03-26T23:15:41.341Z,43.84
2019-03-26T23:18:10.558Z,43.91
2019-03-26T23:20:41.077Z,43.96
2019-03-26T23:23:10.429Z,44.01
2019-03-26T23:25:39.463Z,44.04
2019-03-26T23:28:08.758Z,44.11
2019-03-26T23:30:39.303Z,44.15
2019-03-26T23:33:08.699Z,44.17
2019-03-26T23:35:37.647Z,44.24
2019-03-26T23:38:06.581Z,44.29
2019-03-26T23:40:35.882Z,44.32
2019-03-26T23:43:04.862Z,44.38
2019-03-26T23:45:35.035Z,44.40
2019-03-26T23:48:05.790Z,44.43
2019-03-26T23:50:35.156Z,44.46
2019-03-26T23:53:04.197Z,44.49
2019-03-26T23:55:33.159Z,44.57
2019-03-26T23:58:02.137Z,44.63
